createdAt,value
2022-12-12T00:01:23.551Z,0.20
2022-12-12T00:03:52.155Z,0.20
2022-12-12T00:06:20.557Z,0.20
2022-12-12T00:08:48.665Z,0.20
2022-12-12T00:11:16.965Z,0.20
2022-12-12T00:13:44.871Z,0.20
2022-12-12T00:16:14.492Z,0.20
2022-12-12T00:18:42.489Z,0.10
2022-12-12T00:21:14.712Z,0.10
2022-12-12T00:23:42.889Z,0.20
2022-12-12T00:26:17.138Z,0.10
2022-12-12T00:28:45.131Z,0.20
2022-12-12T00:31:15.729Z,0.20
2022-12-12T00:33:44.797Z,0.20
2022-12-12T00:36:12.752Z,0.20
2022-12-12T00:38:41.392Z,0.20
2022-12-12T00:41:09.511Z,0.20
2022-12-12T00:43:37.519Z,0.20
2022-12-12T00:46:05.896Z,0.20
2022-12-12T00:48:35.359Z,0.20
2022-12-12T00:51:09.549Z,0.30
2022-12-12T00:53:38.132Z,0.30
2022-12-12T00:56:07.103Z,0.20
2022-12-12T00:58:35.298Z,0.20
2022-12-12T01:01:09.153Z,0.20
2022-12-12T01:03:40.926Z,0.20
2022-12-12T01:06:09.387Z,0.20
2022-12-12T01:08:38.213Z,0.20
2022-12-12T01:11:06.693Z,0.20
2022-12-12T01:13:35.263Z,0.20
2022-12-12T01:16:03.228Z,0.20
2022-12-12T01:18:31.328Z,0.20
2022-12-12T01:21:00.875Z,0.20
2022-12-12T01:23:29.191Z,0.20
2022-12-12T01:26:01.672Z,0.20
2022-12-12T01:28:29.704Z,0.20
2022-12-12T01:30:57.764Z,0.20
2022-12-12T01:33:25.795Z,0.20
2022-12-12T01:35:53.767Z,0.20
2022-12-12T01:38:24.581Z,0.20
2022-12-12T01:40:53.323Z,0.20
2022-12-12T01:43:22.577Z,0.20
2022-12-12T01:46:20.312Z,0.10
2022-12-12T01:48:53.131Z,0.20
2022-12-12T01:51:24.555Z,0.20
2022-12-12T01:53:59.070Z,0.10
2022-12-12T01:56:27.215Z,0.10
2022-12-12T01:58:56.202Z,0.10
2022-12-12T02:01:25.063Z,0.10
2022-12-12T02:03:53.845Z,0.10
2022-12-12T02:06:25.897Z,0.10
2022-12-12T02:08:59.036Z,0.10
2022-12-12T02:11:28.760Z,0.10
2022-12-12T02:13:57.405Z,0.10
2022-12-12T02:16:37.734Z,0.10
2022-12-12T02:19:16.630Z,0.10
2022-12-12T02:21:52.385Z,0.10
2022-12-12T02:25:08.605Z,0.10
2022-12-12T02:28:07.112Z,0.10
2022-12-12T02:30:43.169Z,0.10
2022-12-12T02:33:31.155Z,0.00
2022-12-12T02:36:07.261Z,0.00
2022-12-12T02:38:47.130Z,0.00
2022-12-12T02:41:24.072Z,-0.10
2022-12-12T02:44:05.246Z,-0.10
2022-12-12T02:46:39.022Z,-0.20
2022-12-12T02:49:12.480Z,-0.20
2022-12-12T02:51:41.439Z,-0.30
2022-12-12T02:54:15.780Z,-0.30
2022-12-12T02:56:47.979Z,-0.40
2022-12-12T02:59:20.157Z,-0.50
2022-12-12T03:02:02.392Z,-0.60
2022-12-12T03:04:56.855Z,-0.70
2022-12-12T03:07:51.087Z,-0.80
2022-12-12T03:10:32.365Z,-1.00
2022-12-12T03:13:10.084Z,-1.10
2022-12-12T03:15:45.269Z,-1.20
2022-12-12T03:18:25.542Z,-1.30
2022-12-12T03:21:02.013Z,-1.40
2022-12-12T03:23:33.702Z,-1.50
2022-12-12T03:26:05.613Z,-1.60
2022-12-12T03:28:40.557Z,-1.60
2022-12-12T03:31:11.623Z,-1.70
2022-12-12T03:33:44.656Z,-1.70
2022-12-12T03:36:18.204Z,-1.80
2022-12-12T03:38:56.847Z,-1.90
2022-12-12T03:41:28.583Z,-2.00
2022-12-12T03:44:02.774Z,-2.00
2022-12-12T03:46:36.408Z,-2.10
2022-12-12T03:49:12.624Z,-2.20
2022-12-12T03:51:47.847Z,-2.20
2022-12-12T03:54:23.062Z,-2.20
2022-12-12T03:56:56.950Z,-2.30
2022-12-12T03:59:30.604Z,-2.30
2022-12-12T04:02:02.796Z,-2.30
2022-12-12T04:04:35.607Z,-2.30
2022-12-12T04:07:11.732Z,-2.30
2022-12-12T04:09:57.832Z,-2.30
2022-12-12T04:12:52.302Z,-2.20
2022-12-12T04:15:39.702Z,-2.20
2022-12-12T04:18:17.493Z,-2.10
2022-12-12T04:21:03.668Z,-2.10
2022-12-12T04:23:42.955Z,-2.10
2022-12-12T04:26:34.422Z,-2.10
2022-12-12T04:29:12.582Z,-2.10
2022-12-12T04:31:47.145Z,-2.20
2022-12-12T04:34:21.759Z,-2.30
2022-12-12T04:36:51.158Z,-2.30
2022-12-12T04:39:22.649Z,-2.40
2022-12-12T04:41:53.035Z,-2.40
2022-12-12T04:44:24.263Z,-2.50
2022-12-12T04:46:56.914Z,-2.50
2022-12-12T04:49:28.815Z,-2.60
2022-12-12T04:52:01.547Z,-2.60
2022-12-12T04:54:36.963Z,-2.60
2022-12-12T04:57:08.138Z,-2.60
2022-12-12T04:59:36.851Z,-2.60
2022-12-12T05:02:12.923Z,-2.60
2022-12-12T05:04:45.725Z,-2.60
2022-12-12T05:07:20.440Z,-2.60
2022-12-12T05:09:50.148Z,-2.60
2022-12-12T05:12:18.535Z,-2.60
2022-12-12T05:14:46.450Z,-2.60
2022-12-12T05:17:18.532Z,-2.60
2022-12-12T05:19:46.452Z,-2.60
2022-12-12T05:22:14.488Z,-2.50
2022-12-12T05:24:42.392Z,-2.50
2022-12-12T05:27:13.302Z,-2.50
2022-12-12T05:29:41.218Z,-2.50
2022-12-12T05:32:09.127Z,-2.50
2022-12-12T05:34:37.123Z,-2.50
2022-12-12T05:37:05.165Z,-2.50
2022-12-12T05:39:33.109Z,-2.40
2022-12-12T05:42:01.080Z,-2.40
2022-12-12T05:44:30.589Z,-2.40
2022-12-12T05:46:58.575Z,-2.30
2022-12-12T05:49:26.588Z,-2.20
2022-12-12T05:51:54.535Z,-2.10
2022-12-12T05:54:23.081Z,-2.10
2022-12-12T05:56:51.075Z,-2.00
2022-12-12T05:59:19.027Z,-2.00
2022-12-12T06:01:48.301Z,-1.90
2022-12-12T06:04:16.297Z,-1.90
2022-12-12T06:06:44.281Z,-1.80
2022-12-12T06:09:12.518Z,-1.80
2022-12-12T06:11:40.829Z,-1.70
2022-12-12T06:14:08.917Z,-1.70
2022-12-12T06:16:37.704Z,-1.70
2022-12-12T06:19:06.999Z,-1.70
2022-12-12T06:21:35.212Z,-1.70
2022-12-12T06:24:03.168Z,-1.70
2022-12-12T06:26:31.180Z,-1.70
2022-12-12T06:28:59.172Z,-1.60
2022-12-12T06:31:27.224Z,-1.60
2022-12-12T06:33:55.370Z,-1.60
2022-12-12T06:36:25.852Z,-1.60
2022-12-12T06:38:55.509Z,-1.60
2022-12-12T06:41:25.236Z,-1.50
2022-12-12T06:43:53.522Z,-1.50
2022-12-12T06:46:23.894Z,-1.50
2022-12-12T06:48:52.035Z,-1.50
2022-12-12T06:51:22.250Z,-1.50
2022-12-12T06:53:52.569Z,-1.50
2022-12-12T06:56:22.325Z,-1.50
2022-12-12T06:58:50.596Z,-1.50
2022-12-12T07:01:20.314Z,-1.50
2022-12-12T07:03:50.264Z,-1.50
2022-12-12T07:06:19.115Z,-1.50
2022-12-12T07:08:47.166Z,-1.60
2022-12-12T07:11:18.446Z,-1.60
2022-12-12T07:13:46.761Z,-1.60
2022-12-12T07:16:15.543Z,-1.60
2022-12-12T07:18:43.562Z,-1.60
2022-12-12T07:21:14.481Z,-1.70
2022-12-12T07:23:42.820Z,-1.70
2022-12-12T07:26:14.168Z,-1.70
2022-12-12T07:28:43.621Z,-1.60
2022-12-12T07:31:13.856Z,-1.60
2022-12-12T07:33:44.364Z,-1.60
2022-12-12T07:36:13.438Z,-1.60
2022-12-12T07:38:41.437Z,-1.50
2022-12-12T07:41:11.939Z,-1.50
2022-12-12T07:43:44.709Z,-1.50
2022-12-12T07:46:15.906Z,-1.40
2022-12-12T07:48:43.919Z,-1.40
2022-12-12T07:51:11.884Z,-1.30
2022-12-12T07:53:39.876Z,-1.30
2022-12-12T07:56:08.692Z,-1.20
2022-12-12T07:58:37.343Z,-1.20
2022-12-12T08:01:14.610Z,-1.20
2022-12-12T08:03:43.867Z,-1.10
2022-12-12T08:06:12.576Z,-1.10
2022-12-12T08:08:40.816Z,-1.20
2022-12-12T08:11:11.129Z,-1.20
2022-12-12T08:13:40.354Z,-1.20
2022-12-12T08:16:13.713Z,-1.10
2022-12-12T08:18:41.743Z,-1.10
2022-12-12T08:21:10.775Z,-1.00
2022-12-12T08:23:38.833Z,-0.90
2022-12-12T08:26:09.052Z,-0.90
2022-12-12T08:28:38.012Z,-0.80
2022-12-12T08:31:06.299Z,-0.80
2022-12-12T08:33:35.675Z,-0.70
2022-12-12T08:36:13.397Z,-0.60
2022-12-12T08:38:41.607Z,-0.60
2022-12-12T08:41:09.802Z,-0.60
2022-12-12T08:43:37.821Z,-0.70
2022-12-12T08:46:11.019Z,-0.70
2022-12-12T08:48:43.765Z,-0.60
2022-12-12T08:51:11.709Z,-0.60
2022-12-12T08:53:39.778Z,-0.50
2022-12-12T08:56:08.490Z,-0.50
2022-12-12T08:58:37.117Z,-0.50
2022-12-12T09:01:11.148Z,-0.50
2022-12-12T09:03:39.821Z,-0.40
2022-12-12T09:06:10.177Z,-0.30
2022-12-12T09:08:38.677Z,-0.30
2022-12-12T09:11:07.131Z,-0.30
2022-12-12T09:13:35.446Z,-0.40
2022-12-12T09:16:03.596Z,-0.30
2022-12-12T09:18:31.632Z,-0.30
2022-12-12T09:21:00.347Z,-0.30
2022-12-12T09:23:30.072Z,-0.40
2022-12-12T09:25:58.487Z,-0.40
2022-12-12T09:28:27.333Z,-0.40
2022-12-12T09:30:55.296Z,-0.40
2022-12-12T09:33:23.340Z,-0.40
2022-12-12T09:35:58.951Z,-0.40
2022-12-12T09:38:28.257Z,-0.40
2022-12-12T09:40:59.760Z,-0.40
2022-12-12T09:43:31.130Z,-0.30
2022-12-12T09:46:00.112Z,-0.30
2022-12-12T09:48:41.955Z,-0.20
2022-12-12T09:51:11.472Z,-0.20
2022-12-12T09:53:40.613Z,-0.20
2022-12-12T09:56:16.232Z,-0.30
2022-12-12T09:58:55.355Z,-0.40
2022-12-12T10:01:30.829Z,-0.40
2022-12-12T10:04:11.544Z,-0.50
2022-12-12T10:06:44.910Z,-0.50
2022-12-12T10:09:46.207Z,-0.50
2022-12-12T10:12:18.004Z,-0.50
2022-12-12T10:14:49.456Z,-0.60
2022-12-12T10:17:20.086Z,-0.70
2022-12-12T10:19:52.506Z,-0.60
2022-12-12T10:22:26.970Z,-0.60
2022-12-12T10:24:59.527Z,-0.50
2022-12-12T10:27:28.869Z,-0.50
2022-12-12T10:30:01.542Z,-0.40
2022-12-12T10:32:41.718Z,-0.30
2022-12-12T10:35:24.502Z,-0.30
2022-12-12T10:38:07.894Z,-0.30
2022-12-12T10:40:45.611Z,-0.30
2022-12-12T10:43:22.295Z,-0.40
2022-12-12T10:46:13.462Z,-0.40
2022-12-12T10:48:41.844Z,-0.40
2022-12-12T10:51:13.225Z,-0.40
2022-12-12T10:53:43.016Z,-0.40
2022-12-12T10:56:13.248Z,-0.40
2022-12-12T10:58:44.777Z,-0.40
2022-12-12T11:01:18.602Z,-0.40
2022-12-12T11:03:49.257Z,-0.40
2022-12-12T11:06:30.052Z,-0.40
2022-12-12T11:08:59.920Z,-0.40
2022-12-12T11:11:29.437Z,-0.40
2022-12-12T11:14:00.521Z,-0.40
2022-12-12T11:16:30.777Z,-0.40
2022-12-12T11:19:02.579Z,-0.40
2022-12-12T11:21:33.904Z,-0.40
2022-12-12T11:24:07.445Z,-0.30
2022-12-12T11:26:43.005Z,-0.30
2022-12-12T11:29:28.118Z,-0.20
2022-12-12T11:31:56.636Z,-0.20
2022-12-12T11:34:26.996Z,-0.10
2022-12-12T11:36:56.225Z,-0.10
2022-12-12T11:39:28.564Z,0.00
2022-12-12T11:42:02.747Z,0.00
2022-12-12T11:44:37.545Z,0.00
2022-12-12T11:47:24.972Z,0.00
2022-12-12T11:49:55.254Z,0.00
2022-12-12T11:52:26.994Z,0.00
2022-12-12T11:54:55.677Z,0.00
2022-12-12T11:57:38.903Z,0.00
2022-12-12T12:00:13.807Z,0.00
2022-12-12T12:03:12.427Z,0.10
2022-12-12T12:05:49.753Z,0.20
2022-12-12T12:08:30.860Z,0.20
2022-12-12T12:11:11.254Z,0.20
2022-12-12T12:13:57.770Z,0.20
2022-12-12T12:16:36.205Z,0.20
2022-12-12T12:19:12.556Z,0.20
2022-12-12T12:21:49.101Z,0.20
2022-12-12T12:24:33.685Z,0.20
2022-12-12T12:27:09.668Z,0.30
2022-12-12T12:29:58.857Z,0.20
2022-12-12T12:32:40.836Z,0.20
2022-12-12T12:35:21.406Z,0.20
2022-12-12T12:37:56.186Z,0.20
2022-12-12T12:40:44.973Z,0.20
2022-12-12T12:43:29.222Z,0.20
2022-12-12T12:46:01.801Z,0.30
2022-12-12T12:48:36.807Z,0.30
2022-12-12T12:51:09.951Z,0.30
2022-12-12T12:53:42.395Z,0.30
2022-12-12T12:56:25.125Z,0.30
2022-12-12T12:58:57.976Z,0.30
2022-12-12T13:01:30.185Z,0.30
2022-12-12T13:04:06.067Z,0.40
2022-12-12T13:06:41.571Z,0.40
2022-12-12T13:09:25.230Z,0.40
2022-12-12T13:12:00.405Z,0.40
2022-12-12T13:14:38.927Z,0.40
2022-12-12T13:17:13.408Z,0.40
2022-12-12T13:19:46.717Z,0.30
2022-12-12T13:22:17.486Z,0.30
2022-12-12T13:24:59.425Z,0.30
2022-12-12T13:27:36.455Z,0.30
2022-12-12T13:30:11.824Z,0.30
2022-12-12T13:33:12.833Z,0.20
2022-12-12T13:35:46.170Z,0.20
2022-12-12T13:38:20.484Z,0.20
2022-12-12T13:40:57.329Z,0.20
2022-12-12T13:43:31.615Z,0.20
2022-12-12T13:45:59.821Z,0.20
2022-12-12T13:48:46.727Z,0.20
2022-12-12T13:51:37.764Z,0.20
2022-12-12T13:54:51.270Z,0.20
2022-12-12T13:57:26.019Z,0.20
2022-12-12T14:00:16.977Z,0.10
2022-12-12T14:02:57.991Z,0.20
2022-12-12T14:05:31.961Z,0.10
2022-12-12T14:08:06.844Z,0.10
2022-12-12T14:10:38.231Z,0.10
2022-12-12T14:13:27.283Z,0.10
2022-12-12T14:16:04.474Z,0.10
2022-12-12T14:18:38.042Z,0.00
2022-12-12T14:21:09.648Z,0.00
2022-12-12T14:23:42.258Z,0.00
2022-12-12T14:26:50.860Z,0.00
2022-12-12T14:29:27.566Z,-0.10
2022-12-12T14:32:10.399Z,-0.10
2022-12-12T14:34:50.956Z,-0.10
2022-12-12T14:37:49.819Z,-0.20
2022-12-12T14:40:22.927Z,-0.20
2022-12-12T14:43:18.644Z,-0.20
2022-12-12T14:45:56.415Z,-0.30
2022-12-12T14:48:26.498Z,-0.30
2022-12-12T14:51:07.087Z,-0.40
2022-12-12T14:53:45.927Z,-0.40
2022-12-12T14:56:17.622Z,-0.40
2022-12-12T14:58:50.521Z,-0.50
2022-12-12T15:01:29.824Z,-0.50
2022-12-12T15:03:59.747Z,-0.60
2022-12-12T15:06:31.045Z,-0.60
2022-12-12T15:09:19.203Z,-0.70
2022-12-12T15:11:50.065Z,-0.70
2022-12-12T15:14:23.661Z,-0.80
2022-12-12T15:16:55.679Z,-0.90
2022-12-12T15:19:27.644Z,-0.90
2022-12-12T15:21:56.209Z,-1.00
2022-12-12T15:24:26.743Z,-1.00
2022-12-12T15:26:58.572Z,-1.00
2022-12-12T15:29:29.285Z,-1.10
2022-12-12T15:32:01.768Z,-1.20
2022-12-12T15:34:32.199Z,-1.20
2022-12-12T15:37:21.124Z,-1.30
2022-12-12T15:40:18.649Z,-1.30
2022-12-12T15:42:52.119Z,-1.40
2022-12-12T15:45:24.515Z,-1.40
2022-12-12T15:47:54.288Z,-1.50
2022-12-12T15:50:25.659Z,-1.50
2022-12-12T15:53:07.409Z,-1.50
2022-12-12T15:55:36.125Z,-1.50
2022-12-12T15:58:05.810Z,-1.50
2022-12-12T16:00:37.584Z,-1.50
2022-12-12T16:03:20.530Z,-1.60
2022-12-12T16:06:04.452Z,-1.60
2022-12-12T16:08:55.323Z,-1.60
2022-12-12T16:11:38.770Z,-1.70
2022-12-12T16:14:25.710Z,-1.70
2022-12-12T16:16:57.977Z,-1.80
2022-12-12T16:19:46.797Z,-1.80
2022-12-12T16:22:20.233Z,-1.80
2022-12-12T16:24:51.621Z,-1.90
2022-12-12T16:27:20.322Z,-1.90
2022-12-12T16:29:49.747Z,-1.90
2022-12-12T16:32:20.289Z,-2.00
2022-12-12T16:34:48.210Z,-2.00
2022-12-12T16:37:17.952Z,-2.00
2022-12-12T16:39:45.921Z,-2.10
2022-12-12T16:42:15.061Z,-2.10
2022-12-12T16:44:43.344Z,-2.10
2022-12-12T16:47:17.001Z,-2.10
2022-12-12T16:49:45.389Z,-2.10
2022-12-12T16:52:14.142Z,-2.20
2022-12-12T16:54:42.293Z,-2.20
2022-12-12T16:57:10.330Z,-2.30
2022-12-12T16:59:39.349Z,-2.20
2022-12-12T17:02:20.579Z,-2.30
2022-12-12T17:04:48.844Z,-2.30
2022-12-12T17:07:17.445Z,-2.30
2022-12-12T17:09:45.714Z,-2.40
2022-12-12T17:12:15.272Z,-2.50
2022-12-12T17:14:43.255Z,-2.50
2022-12-12T17:17:11.432Z,-2.50
2022-12-12T17:19:40.829Z,-2.50
2022-12-12T17:22:08.821Z,-2.50
2022-12-12T17:24:36.790Z,-2.50
2022-12-12T17:27:04.970Z,-2.60
2022-12-12T17:29:32.917Z,-2.60
2022-12-12T17:32:00.939Z,-2.60
2022-12-12T17:34:28.950Z,-2.60
2022-12-12T17:36:58.279Z,-2.60
2022-12-12T17:39:26.229Z,-2.60
2022-12-12T17:41:54.174Z,-2.60
2022-12-12T17:44:23.227Z,-2.60
2022-12-12T17:46:51.278Z,-2.70
2022-12-12T17:49:19.284Z,-2.70
2022-12-12T17:51:47.336Z,-2.70
2022-12-12T17:54:16.972Z,-2.80
2022-12-12T17:56:44.879Z,-2.80
2022-12-12T17:59:12.814Z,-2.80
2022-12-12T18:01:40.737Z,-2.80
2022-12-12T18:04:09.244Z,-2.90
2022-12-12T18:06:37.668Z,-2.90
2022-12-12T18:09:05.876Z,-2.90
2022-12-12T18:11:35.717Z,-2.90
2022-12-12T18:14:06.234Z,-2.90
2022-12-12T18:16:35.964Z,-3.00
2022-12-12T18:19:04.704Z,-2.90
2022-12-12T18:24:24.831Z,-3.00
2022-12-12T18:26:55.564Z,-3.00
2022-12-12T18:29:23.939Z,-3.00
2022-12-12T18:31:51.967Z,-3.00
2022-12-12T18:34:20.218Z,-3.10
2022-12-12T18:36:49.325Z,-3.10
2022-12-12T18:39:17.916Z,-3.10
2022-12-12T18:41:46.142Z,-3.10
2022-12-12T18:44:16.221Z,-3.20
2022-12-12T18:46:44.578Z,-3.20
2022-12-12T18:49:15.291Z,-3.20
2022-12-12T18:51:43.814Z,-3.20
2022-12-12T18:54:15.535Z,-3.20
2022-12-12T18:56:44.816Z,-3.20
2022-12-12T18:59:12.832Z,-3.30
2022-12-12T19:01:42.330Z,-3.30
2022-12-12T19:04:14.068Z,-3.30
2022-12-12T19:06:44.334Z,-3.40
2022-12-12T19:09:15.254Z,-3.40
2022-12-12T19:11:44.275Z,-3.40
2022-12-12T19:14:13.631Z,-3.50
2022-12-12T19:16:43.620Z,-3.50
2022-12-12T19:19:12.410Z,-3.50
2022-12-12T19:21:41.639Z,-3.60
2022-12-12T19:24:12.087Z,-3.60
2022-12-12T19:26:41.521Z,-3.60
2022-12-12T19:29:12.801Z,-3.70
2022-12-12T19:31:42.526Z,-3.70
2022-12-12T19:34:13.012Z,-3.70
2022-12-12T19:36:41.608Z,-3.70
2022-12-12T19:39:11.751Z,-3.80
2022-12-12T19:41:40.640Z,-3.80
2022-12-12T19:44:12.501Z,-3.80
2022-12-12T19:46:43.640Z,-3.80
2022-12-12T19:49:13.322Z,-3.80
2022-12-12T19:51:42.794Z,-3.80
2022-12-12T19:54:14.191Z,-3.80
2022-12-12T19:56:42.265Z,-3.80
2022-12-12T19:59:12.202Z,-3.80
2022-12-12T20:01:41.389Z,-3.90
2022-12-12T20:04:16.347Z,-3.90
2022-12-12T20:06:46.006Z,-3.90
2022-12-12T20:09:15.532Z,-3.90
2022-12-12T20:11:45.242Z,-4.00
2022-12-12T20:14:16.118Z,-3.90
2022-12-12T20:16:44.833Z,-3.90
2022-12-12T20:19:15.199Z,-3.90
2022-12-12T20:22:00.945Z,-4.00
2022-12-12T20:24:30.969Z,-4.00
2022-12-12T20:26:59.566Z,-4.00
2022-12-12T20:29:28.333Z,-4.00
2022-12-12T20:31:56.374Z,-4.00
2022-12-12T20:34:25.679Z,-4.00
2022-12-12T20:36:55.549Z,-4.00
2022-12-12T20:39:25.059Z,-4.00
2022-12-12T20:41:54.271Z,-4.00
2022-12-12T20:44:24.125Z,-4.00
2022-12-12T20:46:52.392Z,-4.00
2022-12-12T20:49:22.149Z,-4.00
2022-12-12T20:51:56.756Z,-4.10
2022-12-12T20:54:25.724Z,-4.10
2022-12-12T20:56:54.788Z,-4.10
2022-12-12T20:59:23.556Z,-4.10
2022-12-12T21:01:52.183Z,-4.20
2022-12-12T21:04:20.639Z,-4.20
2022-12-12T21:06:49.750Z,-4.10
2022-12-12T21:09:25.830Z,-4.20
2022-12-12T21:11:55.547Z,-4.20
2022-12-12T21:14:25.224Z,-4.20
2022-12-12T21:16:54.121Z,-4.20
2022-12-12T21:19:23.129Z,-4.30
2022-12-12T21:21:51.569Z,-4.30
2022-12-12T21:24:21.437Z,-4.30
2022-12-12T21:26:49.425Z,-4.30
2022-12-12T21:29:18.397Z,-4.30
2022-12-12T21:31:51.595Z,-4.30
2022-12-12T21:34:21.807Z,-4.30
2022-12-12T21:36:52.499Z,-4.30
2022-12-12T21:39:23.033Z,-4.30
2022-12-12T21:41:51.391Z,-4.30
2022-12-12T21:44:20.331Z,-4.30
2022-12-12T21:46:48.398Z,-4.30
2022-12-12T21:49:30.572Z,-4.30
2022-12-12T21:52:00.061Z,-4.30
2022-12-12T21:54:30.612Z,-4.30
2022-12-12T21:56:59.394Z,-4.30
2022-12-12T21:59:28.180Z,-4.30
2022-12-12T22:01:57.115Z,-4.30
2022-12-12T22:04:25.350Z,-4.40
2022-12-12T22:06:53.426Z,-4.40
2022-12-12T22:09:21.530Z,-4.40
2022-12-12T22:11:52.160Z,-4.40
2022-12-12T22:14:31.078Z,-4.40
2022-12-12T22:16:59.343Z,-4.40
2022-12-12T22:19:27.416Z,-4.40
2022-12-12T22:21:55.418Z,-4.50
2022-12-12T22:24:25.927Z,-4.50
2022-12-12T22:26:55.257Z,-4.50
2022-12-12T22:29:23.204Z,-4.50
2022-12-12T22:31:52.257Z,-4.50
2022-12-12T22:34:23.251Z,-4.50
2022-12-12T22:36:52.054Z,-4.50
2022-12-12T22:39:23.235Z,-4.50
2022-12-12T22:41:51.293Z,-4.40
2022-12-12T22:44:23.294Z,-4.40
2022-12-12T22:46:53.875Z,-4.40
2022-12-12T22:49:25.629Z,-4.40
2022-12-12T22:51:57.231Z,-4.50
2022-12-12T22:54:25.942Z,-4.50
2022-12-12T22:56:54.123Z,-4.50
2022-12-12T22:59:23.546Z,-4.50
2022-12-12T23:01:51.567Z,-4.50
2022-12-12T23:04:19.681Z,-4.50
2022-12-12T23:06:47.894Z,-4.40
2022-12-12T23:09:18.462Z,-4.50
2022-12-12T23:11:47.154Z,-4.60
2022-12-12T23:14:17.620Z,-4.50
2022-12-12T23:16:47.221Z,-4.50
2022-12-12T23:19:17.333Z,-4.60
2022-12-12T23:21:45.599Z,-4.60
2022-12-12T23:24:13.905Z,-4.60
2022-12-12T23:26:42.632Z,-4.60
2022-12-12T23:29:16.082Z,-4.60
2022-12-12T23:31:44.492Z,-4.10
2022-12-12T23:34:20.559Z,-4.70
2022-12-12T23:36:48.893Z,-4.90
2022-12-12T23:39:17.113Z,-4.70
2022-12-12T23:41:45.798Z,-4.70
2022-12-12T23:44:15.657Z,-4.70
2022-12-12T23:46:44.214Z,-4.70
2022-12-12T23:49:17.729Z,-4.70
2022-12-12T23:51:47.589Z,-4.70
2022-12-12T23:54:18.022Z,-4.60
2022-12-12T23:56:46.469Z,-4.60
2022-12-12T23:59:17.825Z,-4.60
